Three Rivers, Massachusetts
Current Conditions -  °F | °C
As of 4:58 PM on Tuesday 21 Oct 2014 (Local Time) from KCEF Reporting Station
Broken Clouds Broken Clouds  
Wind Chill: 59°   Ceiling: 25000
Heat Index: 59°   Visibility: 10mi
Dew Point: 49°   Wind: 9mph
Humidity: 71%   Direction: 350°N
Pressure: 29.89"   Gusts: NA
Location:  42.18°N, 72.37°W
Report Text: KCEF 212058Z 35008KT 10SM SCT050 SCT095 BKN250 15/10 A2989 RMK AO2A SLP128 T01490097 55002
Loading
Personal Weather Stations






























Interactive Weather Map
Tropical Storm Tracking
New forecast layout! Learn more

10-Day Weather Forecast

Advertisements
Track Severe Weather on mobile